Latest Weather Observations for Outer Harbor (Black Pole)

IDS60801

Issued at 2:31 pm CST Monday 23 September 2019 (issued every 10 minutes, with the page automatically refreshed every 10 minutes)

About weather observations | Map of weather stations | Latest weather observations for SA | Other Formats
Station Details ID: 023052 Name: BLACK POLE Lat: -34.73 Lon: 138.47 Height: 6.27 m
Data from the previous 72 hours. | See also: Recent months for locations in South Australia
Date/Time
CST
Temp
°C
App
Temp
°C
Dew
Point
°C
Rel
Hum
%
Delta-T
°C
Wind Press
QNH
hPa
Press
MSL
hPa
Rain since
9am
mm
Dir  Spd
km/h
Gust
km/h
Spd
kts
Gust
kts
23/02:00pm - - - - - SSW 13 17 7 9 - - -
23/01:30pm - - - - - SW 11 15 6 8 - - -
23/01:00pm - - - - - WSW 9 13 5 7 - - -
23/12:30pm - - - - - SW 9 13 5 7 - - -
23/12:00pm - - - - - SW 7 11 4 6 - - -
23/11:30am - - - - - SSW 20 28 11 15 - - -
23/11:13am - - - - - SW 20 33 11 18 - - -
23/11:00am - - - - - WSW 9 13 5 7 - - -
23/10:30am - - - - - W 7 9 4 5 - - -
23/10:00am - - - - - W 19 24 10 13 - - -
23/09:30am - - - - - WSW 9 13 5 7 - - -
23/09:00am - - - - - SW 13 19 7 10 - - -
23/08:30am - - - - - SW 17 22 9 12 - - -
23/08:00am - - - - - WSW 17 20 9 11 - - -
23/07:30am - - - - - WSW 22 26 12 14 - - -
23/07:00am - - - - - SW 20 24 11 13 - - -
23/06:30am - - - - - WSW 20 26 11 14 - - -
23/06:00am - - - - - WSW 22 26 12 14 - - -
23/05:30am - - - - - SW 20 26 11 14 - - -
23/05:00am - - - - - WSW 24 28 13 15 - - -
23/04:30am - - - - - WSW 26 33 14 18 - - -
23/04:00am - - - - - WSW 26 32 14 17 - - -
23/03:30am - - - - - WSW 30 35 16 19 - - -
23/03:00am - - - - - WSW 26 33 14 18 - - -
23/02:30am - - - - - WSW 28 33 15 18 - - -
23/02:00am - - - - - WSW 26 30 14 16 - - -
23/01:30am - - - - - WSW 28 32 15 17 - - -
23/01:00am - - - - - WSW 28 32 15 17 - - -
23/12:30am - - - - - WSW 24 30 13 16 - - -
23/12:00am - - - - - WSW 26 32 14 17 - - -
 
Date/Time
CST
Temp
°C
App
Temp
°C
Dew
Point
°C
Rel
Hum
%
Delta-T
°C
Wind Press
QNH
hPa
Press
MSL
hPa
Rain since
9am
mm
Dir  Spd
km/h
Gust
km/h
Spd
kts
Gust
kts
22/11:30pm - - - - - WSW 26 30 14 16 - - -
22/11:00pm - - - - - WSW 30 37 16 20 - - -
22/10:30pm - - - - - WSW 30 37 16 20 - - -
22/10:00pm - - - - - WSW 33 41 18 22 - - -
22/09:30pm - - - - - WSW 35 43 19 23 - - -
22/09:00pm - - - - - W 33 39 18 21 - - -
22/08:30pm - - - - - WSW 28 35 15 19 - - -
22/08:12pm - - - - - WSW 48 67 26 36 - - -
22/08:06pm - - - - - W 43 67 23 36 - - -
22/08:04pm - - - - - W 41 67 22 36 - - -
22/08:00pm - - - - - WNW 35 46 19 25 - - -
22/07:30pm - - - - - WNW 28 32 15 17 - - -
22/07:00pm - - - - - WNW 30 39 16 21 - - -
22/06:30pm - - - - - WNW 32 35 17 19 - - -
22/06:00pm - - - - - WNW 37 46 20 25 - - -
22/05:30pm - - - - - WNW 41 50 22 27 - - -
22/05:00pm - - - - - WNW 37 52 20 28 - - -
22/04:30pm - - - - - WNW 33 37 18 20 - - -
22/04:00pm - - - - - WNW 30 39 16 21 - - -
22/03:30pm - - - - - WNW 43 52 23 28 - - -
22/03:17pm - - - - - WNW 32 54 17 29 - - -
22/03:00pm - - - - - WNW 32 39 17 21 - - -
22/02:30pm - - - - - WNW 32 37 17 20 - - -
22/02:00pm - - - - - WNW 24 32 13 17 - - -
22/01:30pm - - - - - WNW 32 43 17 23 - - -
22/01:00pm - - - - - WNW 30 35 16 19 - - -
22/12:30pm - - - - - WNW 32 37 17 20 - - -
22/12:00pm - - - - - WNW 30 33 16 18 - - -
22/11:30am - - - - - WNW 28 33 15 18 - - -
22/11:00am - - - - - NW 26 35 14 19 - - -
22/10:30am - - - - - NW 28 32 15 17 - - -
22/10:00am - - - - - NW 28 33 15 18 - - -
22/09:30am - - - - - NW 26 32 14 17 - - -
22/09:00am - - - - - NW 28 35 15 19 - - -
22/08:30am - - - - - WNW 28 33 15 18 - - -
22/08:00am - - - - - NW 30 33 16 18 - - -
22/07:30am - - - - - NW 20 30 11 16 - - -
22/07:00am - - - - - N 19 22 10 12 - - -
22/06:30am - - - - - N 17 20 9 11 - - -
22/06:00am - - - - - NNW 13 22 7 12 - - -
22/05:30am - - - - - WNW 13 20 7 11 - - -
22/05:00am - - - - - W 19 24 10 13 - - -
22/04:30am - - - - - W 24 32 13 17 - - -
22/04:00am - - - - - W 19 26 10 14 - - -
22/03:30am - - - - - W 20 24 11 13 - - -
22/03:00am - - - - - W 19 24 10 13 - - -
22/02:30am - - - - - W 17 22 9 12 - - -
22/02:00am - - - - - W 19 24 10 13 - - -
22/01:30am - - - - - W 22 28 12 15 - - -
22/01:00am - - - - - W 22 26 12 14 - - -
22/12:30am - - - - - W 22 28 12 15 - - -
22/12:00am - - - - - WSW 24 28 13 15 - - -
 
Date/Time
CST
Temp
°C
App
Temp
°C
Dew
Point
°C
Rel
Hum
%
Delta-T
°C
Wind Press
QNH
hPa
Press
MSL
hPa
Rain since
9am
mm
Dir  Spd
km/h
Gust
km/h
Spd
kts
Gust
kts
21/11:30pm - - - - - WSW 26 30 14 16 - - -
21/11:00pm - - - - - WSW 26 32 14 17 - - -
21/10:30pm - - - - - WSW 26 32 14 17 - - -
21/10:00pm - - - - - WSW 28 33 15 18 - - -
21/09:30pm - - - - - WSW 28 33 15 18 - - -
21/09:00pm - - - - - WSW 32 37 17 20 - - -
21/08:30pm - - - - - WSW 30 35 16 19 - - -
21/08:00pm - - - - - W 26 33 14 18 - - -
21/07:30pm - - - - - W 30 33 16 18 - - -
21/07:00pm - - - - - W 33 39 18 21 - - -
21/06:30pm - - - - - WSW 32 43 17 23 - - -
21/06:00pm - - - - - W 30 35 16 19 - - -
21/05:30pm - - - - - SW 17 22 9 12 - - -
21/05:00pm - - - - - WSW 19 22 10 12 - - -
21/04:30pm - - - - - SW 20 26 11 14 - - -
21/04:00pm - - - - - SW 22 28 12 15 - - -
21/03:30pm - - - - - SW 20 24 11 13 - - -
21/03:00pm - - - - - SW 26 32 14 17 - - -
21/02:30pm - - - - - SW 19 24 10 13 - - -
21/02:00pm - - - - - SW 30 37 16 20 - - -
21/01:30pm - - - - - WSW 26 32 14 17 - - -
21/01:00pm - - - - - SW 30 35 16 19 - - -
21/12:30pm - - - - - SW 26 32 14 17 - - -
21/12:00pm - - - - - SW 32 37 17 20 - - -
21/11:30am - - - - - SW 33 39 18 21 - - -
21/11:00am - - - - - SW 37 46 20 25 - - -
21/10:30am - - - - - SW 37 44 20 24 - - -
21/10:00am - - - - - SW 37 44 20 24 - - -
21/09:30am - - - - - SW 39 50 21 27 - - -
21/09:00am - - - - - SW 37 50 20 27 - - -
21/08:48am - - - - - SW 37 56 20 30 - - -
21/08:30am - - - - - SW 35 43 19 23 - - -
21/08:00am - - - - - WSW 33 44 18 24 - - -
21/07:30am - - - - - W 33 39 18 21 - - -
21/07:00am - - - - - W 33 39 18 21 - - -
21/06:30am - - - - - W 33 39 18 21 - - -
21/06:00am - - - - - W 30 37 16 20 - - -
21/05:30am - - - - - W 32 39 17 21 - - -
21/05:00am - - - - - W 33 39 18 21 - - -
21/04:30am - - - - - WNW 32 39 17 21 - - -
21/04:00am - - - - - W 32 37 17 20 - - -
21/03:30am - - - - - W 30 37 16 20 - - -
21/03:00am - - - - - W 28 33 15 18 - - -
21/02:30am - - - - - WNW 32 39 17 21 - - -
21/02:00am - - - - - W 24 30 13 16 - - -
21/01:30am - - - - - W 26 32 14 17 - - -
21/01:00am - - - - - W 26 30 14 16 - - -
21/12:30am - - - - - WSW 26 30 14 16 - - -
21/12:00am - - - - - WSW 24 30 13 16 - - -
 
Date/Time
CST
Temp
°C
App
Temp
°C
Dew
Point
°C
Rel
Hum
%
Delta-T
°C
Wind Press
QNH
hPa
Press
MSL
hPa
Rain since
9am
mm
Dir  Spd
km/h
Gust
km/h
Spd
kts
Gust
kts
20/11:30pm - - - - - WSW 20 26 11 14 - - -
20/11:00pm - - - - - WSW 32 41 17 22 - - -
20/10:30pm - - - - - WSW 35 44 19 24 - - -
20/10:00pm - - - - - WSW 30 37 16 20 - - -
20/09:30pm - - - - - W 20 24 11 13 - - -
20/09:00pm - - - - - NW 15 19 8 10 - - -
20/08:30pm - - - - - NW 11 15 6 8 - - -
20/08:00pm - - - - - W 15 19 8 10 - - -
20/07:30pm - - - - - W 22 28 12 15 - - -
20/07:00pm - - - - - W 24 28 13 15 - - -
20/06:30pm - - - - - WSW 9 11 5 6 - - -
20/06:00pm - - - - - W 13 19 7 10 - - -
20/05:30pm - - - - - W 11 15 6 8 - - -
20/05:00pm - - - - - W 26 30 14 16 - - -
20/04:30pm - - - - - W 32 39 17 21 - - -
20/04:00pm - - - - - W 28 32 15 17 - - -
20/03:30pm - - - - - W 30 35 16 19 - - -
20/03:00pm - - - - - W 37 46 20 25 - - -
20/02:50pm - - - - - W 15 41 8 22 - - -

Other formats

Comma delimited format used in spreadsheet applications
http://www.bom.gov.au/fwo/IDS60801/IDS60801.95675.axf

JavaScript Object Notation format (JSON) in row-major order
http://www.bom.gov.au/fwo/IDS60801/IDS60801.95675.json

Data quality

Most of these data are generated automatically and are frequently updated. Quality checks on data are not normally performed. It is possible for incorrect values to appear. Refer to information at About Latest Weather Observations and please check the disclaimer before using these data.